createdAt,value
2019-02-17T00:00:51.479Z,9.93
2019-02-17T00:01:56.557Z,9.93
2019-02-17T00:03:01.560Z,9.92
2019-02-17T00:04:06.522Z,9.92
2019-02-17T00:05:11.786Z,9.87
2019-02-17T00:06:16.705Z,9.91
2019-02-17T00:07:21.683Z,9.92
2019-02-17T00:08:26.592Z,9.92
2019-02-17T00:09:31.522Z,9.91
2019-02-17T00:10:36.463Z,9.91
2019-02-17T00:11:41.471Z,9.92
2019-02-17T00:12:46.467Z,9.91
2019-02-17T00:13:51.535Z,9.91
2019-02-17T00:14:56.546Z,9.92
2019-02-17T00:16:02.116Z,9.92
2019-02-17T00:17:06.997Z,9.91
2019-02-17T00:18:11.952Z,9.87
2019-02-17T00:19:16.910Z,9.87
2019-02-17T00:20:21.833Z,9.92
2019-02-17T00:21:26.877Z,9.91
2019-02-17T00:22:31.988Z,9.91
2019-02-17T00:23:36.944Z,9.91
2019-02-17T00:24:42.188Z,9.89
2019-02-17T00:25:47.459Z,9.90
2019-02-17T00:26:52.420Z,9.90
2019-02-17T00:27:57.703Z,9.89
2019-02-17T00:29:03.006Z,9.88
2019-02-17T00:30:08.187Z,9.89
2019-02-17T00:31:13.210Z,9.87
2019-02-17T00:32:18.150Z,9.87
2019-02-17T00:33:23.098Z,9.88
2019-02-17T00:34:28.034Z,9.86
2019-02-17T00:35:33.522Z,9.87
2019-02-17T00:36:38.830Z,9.85
2019-02-17T00:37:43.909Z,9.86
2019-02-17T00:38:49.085Z,9.86
2019-02-17T00:39:54.078Z,9.84
2019-02-17T00:40:59.393Z,9.82
2019-02-17T00:42:04.425Z,9.82
2019-02-17T00:43:09.713Z,9.82
2019-02-17T00:44:15.644Z,9.75
2019-02-17T00:45:20.645Z,9.80
2019-02-17T00:46:25.695Z,9.79
2019-02-17T00:47:30.921Z,9.79
2019-02-17T00:48:35.964Z,9.78
2019-02-17T00:49:41.958Z,9.77
2019-02-17T00:50:46.965Z,9.77
2019-02-17T00:51:51.999Z,9.76
2019-02-17T00:52:57.688Z,9.76
2019-02-17T00:54:02.613Z,9.75
2019-02-17T00:55:07.638Z,9.75
2019-02-17T00:56:12.612Z,9.73
2019-02-17T00:57:20.755Z,9.73
2019-02-17T00:58:25.847Z,9.67
2019-02-17T00:59:31.096Z,9.67
2019-02-17T01:00:36.100Z,9.71
2019-02-17T01:01:41.023Z,9.70
2019-02-17T01:02:45.997Z,9.68
2019-02-17T01:03:51.269Z,9.67
2019-02-17T01:04:56.186Z,9.67
2019-02-17T01:06:01.238Z,9.66
2019-02-17T01:07:06.414Z,9.64
2019-02-17T01:08:11.365Z,9.64
2019-02-17T01:09:16.266Z,9.62
2019-02-17T01:10:21.246Z,9.62
2019-02-17T01:11:26.214Z,9.62
2019-02-17T01:12:31.193Z,9.61
2019-02-17T01:13:39.672Z,9.60
2019-02-17T01:14:44.924Z,9.59
2019-02-17T01:15:49.830Z,9.58
2019-02-17T01:16:54.830Z,9.58
2019-02-17T01:17:59.723Z,9.56
2019-02-17T01:19:04.773Z,9.56
2019-02-17T01:20:09.888Z,9.55
2019-02-17T01:21:15.151Z,9.54
2019-02-17T01:22:20.414Z,9.54
2019-02-17T01:23:25.367Z,9.51
2019-02-17T01:24:30.298Z,9.51
2019-02-17T01:25:35.536Z,9.51
2019-02-17T01:26:40.881Z,9.49
2019-02-17T01:27:45.832Z,9.50
2019-02-17T01:28:50.765Z,9.50
2019-02-17T01:29:55.695Z,9.47
2019-02-17T01:31:00.787Z,9.47
2019-02-17T01:32:06.116Z,9.47
2019-02-17T01:33:11.033Z,9.46
2019-02-17T01:34:16.039Z,9.40
2019-02-17T01:35:21.160Z,9.45
2019-02-17T01:36:26.086Z,9.42
2019-02-17T01:37:31.123Z,9.42
2019-02-17T01:38:36.118Z,9.42
2019-02-17T01:39:42.923Z,9.41
2019-02-17T01:40:48.083Z,9.40
2019-02-17T01:41:53.110Z,9.39
2019-02-17T01:42:58.063Z,9.39
2019-02-17T01:44:03.086Z,9.38
2019-02-17T01:45:08.529Z,9.37
2019-02-17T01:46:13.533Z,9.36
2019-02-17T01:47:18.581Z,9.36
2019-02-17T01:48:23.528Z,9.35
2019-02-17T01:49:28.502Z,9.35
2019-02-17T01:50:33.548Z,9.34
2019-02-17T01:51:38.610Z,9.33
2019-02-17T01:52:43.536Z,9.32
2019-02-17T01:53:48.544Z,9.33
2019-02-17T01:54:53.863Z,9.32
2019-02-17T01:55:58.860Z,9.33
2019-02-17T01:57:03.840Z,9.31
2019-02-17T01:58:08.732Z,9.31
2019-02-17T01:59:13.743Z,9.31
2019-02-17T02:00:18.653Z,9.31
2019-02-17T02:01:23.586Z,9.30
2019-02-17T02:02:28.567Z,9.31
2019-02-17T02:03:33.821Z,9.30
2019-02-17T02:04:39.424Z,9.30
2019-02-17T02:05:44.675Z,9.29
2019-02-17T02:06:49.649Z,9.29
2019-02-17T02:07:54.567Z,9.28
2019-02-17T02:08:59.621Z,9.28
2019-02-17T02:10:05.610Z,9.27
2019-02-17T02:11:10.617Z,9.27
2019-02-17T02:12:15.555Z,9.26
2019-02-17T02:13:20.551Z,9.26
2019-02-17T02:14:25.509Z,9.27
2019-02-17T02:15:30.569Z,9.26
2019-02-17T02:16:35.859Z,9.27
2019-02-17T02:17:40.809Z,9.26
2019-02-17T02:18:45.747Z,9.26
2019-02-17T02:19:50.720Z,9.25
2019-02-17T02:20:55.893Z,9.25
2019-02-17T02:22:01.013Z,9.25
2019-02-17T02:23:06.027Z,9.25
2019-02-17T02:24:11.107Z,9.25
2019-02-17T02:25:16.032Z,9.24
2019-02-17T02:26:21.002Z,9.25
2019-02-17T02:27:26.339Z,9.25
2019-02-17T02:28:31.231Z,9.24
2019-02-17T02:29:40.964Z,9.25
2019-02-17T02:30:43.507Z,9.23
2019-02-17T02:31:48.470Z,9.23
2019-02-17T02:32:53.366Z,9.23
2019-02-17T02:33:58.639Z,9.22
2019-02-17T02:35:03.662Z,9.22
2019-02-17T02:36:09.088Z,9.21
2019-02-17T02:37:14.526Z,9.20
2019-02-17T02:38:19.459Z,9.20
2019-02-17T02:39:24.388Z,9.19
2019-02-17T02:40:29.342Z,9.19
2019-02-17T02:41:35.165Z,9.17
2019-02-17T02:42:40.248Z,9.18
2019-02-17T02:43:45.571Z,9.16
2019-02-17T02:44:50.531Z,9.16
2019-02-17T02:45:55.507Z,9.16
2019-02-17T02:47:01.461Z,9.14
2019-02-17T02:48:06.466Z,9.14
2019-02-17T02:49:11.461Z,9.13
2019-02-17T02:50:16.528Z,9.13
2019-02-17T02:51:21.448Z,9.11
2019-02-17T02:52:26.396Z,9.10
2019-02-17T02:53:31.656Z,9.10
2019-02-17T02:54:36.622Z,9.09
2019-02-17T02:55:42.318Z,9.09
2019-02-17T02:56:47.316Z,9.08
2019-02-17T02:57:52.675Z,9.07
2019-02-17T02:58:57.994Z,9.07
2019-02-17T03:00:03.228Z,9.05
2019-02-17T03:01:08.887Z,9.05
2019-02-17T03:02:13.856Z,9.04
2019-02-17T03:03:18.776Z,9.04
2019-02-17T03:04:23.693Z,9.03
2019-02-17T03:05:28.777Z,9.02
2019-02-17T03:06:42.665Z,9.02
2019-02-17T03:07:47.728Z,9.01
2019-02-17T03:08:52.647Z,9.00
2019-02-17T03:09:58.195Z,8.99
2019-02-17T03:11:03.173Z,8.98
2019-02-17T03:12:08.055Z,8.97
2019-02-17T03:13:13.303Z,8.96
2019-02-17T03:14:18.300Z,8.95
2019-02-17T03:15:23.510Z,8.94
2019-02-17T03:16:28.840Z,8.93
2019-02-17T03:17:33.818Z,8.90
2019-02-17T03:18:38.761Z,8.90
2019-02-17T03:19:43.880Z,8.90
2019-02-17T03:20:48.891Z,8.89
2019-02-17T03:21:54.378Z,8.90
2019-02-17T03:22:59.438Z,8.89
2019-02-17T03:24:04.799Z,8.89
2019-02-17T03:25:10.112Z,8.89
2019-02-17T03:26:15.151Z,8.88
2019-02-17T03:27:20.462Z,8.88
2019-02-17T03:28:25.492Z,8.89
2019-02-17T03:29:30.871Z,8.88
2019-02-17T03:30:35.847Z,8.88
2019-02-17T03:31:40.830Z,8.88
2019-02-17T03:32:46.087Z,8.87
2019-02-17T03:33:51.081Z,8.88
2019-02-17T03:34:55.940Z,8.87
2019-02-17T03:36:01.237Z,8.87
2019-02-17T03:37:06.141Z,8.87
2019-02-17T03:38:11.095Z,8.86
2019-02-17T03:39:16.046Z,8.85
2019-02-17T03:40:21.299Z,8.85
2019-02-17T03:41:26.387Z,8.83
2019-02-17T03:42:31.443Z,8.83
2019-02-17T03:43:36.661Z,8.82
2019-02-17T03:44:41.928Z,8.81
2019-02-17T03:45:47.318Z,8.82
2019-02-17T03:46:52.795Z,8.80
2019-02-17T03:47:57.772Z,8.79
2019-02-17T03:49:02.849Z,8.79
2019-02-17T03:50:07.900Z,8.77
2019-02-17T03:51:13.190Z,8.77
2019-02-17T03:52:18.140Z,8.77
2019-02-17T03:53:23.115Z,8.77
2019-02-17T03:54:28.181Z,8.76
2019-02-17T03:55:33.521Z,8.76
2019-02-17T03:56:38.449Z,8.76
2019-02-17T03:57:43.354Z,8.76
2019-02-17T03:58:48.925Z,8.75
2019-02-17T03:59:53.877Z,8.76
2019-02-17T04:00:58.957Z,8.74
2019-02-17T04:02:04.296Z,8.75
2019-02-17T04:03:09.245Z,8.74
2019-02-17T04:04:14.255Z,8.75
2019-02-17T04:05:19.245Z,8.73
2019-02-17T04:06:24.652Z,8.73
2019-02-17T04:07:30.080Z,8.73
2019-02-17T04:08:35.010Z,8.72
2019-02-17T04:09:40.429Z,8.71
2019-02-17T04:10:46.184Z,8.70
2019-02-17T04:11:51.668Z,8.70
2019-02-17T04:12:56.808Z,8.70
2019-02-17T04:14:01.730Z,8.69
2019-02-17T04:15:06.878Z,8.68
2019-02-17T04:16:11.885Z,8.69
2019-02-17T04:17:17.204Z,8.68
2019-02-17T04:18:22.344Z,8.68
2019-02-17T04:19:27.348Z,8.68
2019-02-17T04:20:32.371Z,8.68
2019-02-17T04:21:37.392Z,8.67
2019-02-17T04:22:42.651Z,8.68
2019-02-17T04:23:47.594Z,8.67
2019-02-17T04:24:52.814Z,8.67
2019-02-17T04:25:58.308Z,8.67
2019-02-17T04:27:03.252Z,8.67
2019-02-17T04:28:08.582Z,8.67
2019-02-17T04:29:13.616Z,8.65
2019-02-17T04:30:28.493Z,8.66
2019-02-17T04:31:25.891Z,8.65
2019-02-17T04:32:30.860Z,8.64
2019-02-17T04:33:35.966Z,8.65
2019-02-17T04:34:40.956Z,8.64
2019-02-17T04:35:45.883Z,8.65
2019-02-17T04:36:50.903Z,8.65
2019-02-17T04:37:55.879Z,8.64
2019-02-17T04:39:01.177Z,8.64
2019-02-17T04:40:08.146Z,8.64
2019-02-17T04:41:13.062Z,8.64
2019-02-17T04:42:17.969Z,8.63
2019-02-17T04:43:23.005Z,8.62
2019-02-17T04:44:27.901Z,8.63
2019-02-17T04:45:32.849Z,8.62
2019-02-17T04:46:37.921Z,8.63
2019-02-17T04:47:42.941Z,8.64
2019-02-17T04:48:48.171Z,8.64
2019-02-17T04:49:53.708Z,8.64
2019-02-17T04:50:59.040Z,8.64
2019-02-17T04:52:04.294Z,8.64
2019-02-17T04:53:09.860Z,8.63
2019-02-17T04:54:15.034Z,8.61
2019-02-17T04:55:19.990Z,8.62
2019-02-17T04:56:24.883Z,8.62
2019-02-17T04:57:30.248Z,8.62
2019-02-17T04:58:35.575Z,8.62
2019-02-17T04:59:40.466Z,8.61
2019-02-17T05:00:45.420Z,8.61
2019-02-17T05:01:50.503Z,8.60
2019-02-17T05:02:55.621Z,8.59
2019-02-17T05:04:00.769Z,8.60
2019-02-17T05:05:06.030Z,8.59
2019-02-17T05:06:11.034Z,8.59
2019-02-17T05:07:15.962Z,8.58
2019-02-17T05:08:21.021Z,8.59
2019-02-17T05:09:26.096Z,8.59
2019-02-17T05:10:31.377Z,8.57
2019-02-17T05:11:36.391Z,8.58
2019-02-17T05:12:41.698Z,8.58
2019-02-17T05:13:46.609Z,8.59
2019-02-17T05:14:52.103Z,8.58
2019-02-17T05:15:57.139Z,8.58
2019-02-17T05:17:02.382Z,8.57
2019-02-17T05:18:07.377Z,8.57
2019-02-17T05:19:12.362Z,8.57
2019-02-17T05:20:17.877Z,8.55
2019-02-17T05:21:22.863Z,8.57
2019-02-17T05:22:28.105Z,8.56
2019-02-17T05:23:33.630Z,8.55
2019-02-17T05:24:38.550Z,8.55
2019-02-17T05:25:43.769Z,8.53
2019-02-17T05:26:48.700Z,8.53
2019-02-17T05:27:53.740Z,8.53
2019-02-17T05:28:58.882Z,8.54
2019-02-17T05:30:04.188Z,8.53
2019-02-17T05:31:09.252Z,8.53
2019-02-17T05:32:14.240Z,8.52
2019-02-17T05:33:19.305Z,8.51
2019-02-17T05:34:24.271Z,8.52
2019-02-17T05:35:29.266Z,8.51
2019-02-17T05:36:34.296Z,8.51
2019-02-17T05:37:39.258Z,8.50
2019-02-17T05:38:44.183Z,8.50
2019-02-17T05:39:51.037Z,8.50
2019-02-17T05:40:56.224Z,8.50
2019-02-17T05:42:01.318Z,8.49
2019-02-17T05:43:06.247Z,8.49
2019-02-17T05:44:11.234Z,8.48
2019-02-17T05:45:16.549Z,8.49
2019-02-17T05:46:21.477Z,8.49
2019-02-17T05:47:26.485Z,8.49
2019-02-17T05:48:37.024Z,8.48
2019-02-17T05:49:42.103Z,8.48
2019-02-17T05:50:49.020Z,8.48
2019-02-17T05:51:57.877Z,8.48
2019-02-17T05:53:02.903Z,8.48
2019-02-17T05:54:07.979Z,8.47
2019-02-17T05:55:13.012Z,8.47
2019-02-17T05:56:18.073Z,8.47
2019-02-17T05:57:22.997Z,8.46
2019-02-17T05:58:27.973Z,8.46
2019-02-17T05:59:32.969Z,8.45
2019-02-17T06:00:38.946Z,8.45
2019-02-17T06:01:44.117Z,8.45
2019-02-17T06:02:48.991Z,8.45
2019-02-17T06:03:54.070Z,8.45
2019-02-17T06:04:59.618Z,8.45
2019-02-17T06:06:04.596Z,8.45
2019-02-17T06:07:09.582Z,8.45
2019-02-17T06:08:14.924Z,8.45
2019-02-17T06:09:19.889Z,8.45
2019-02-17T06:10:24.805Z,8.44
2019-02-17T06:11:29.743Z,8.44
2019-02-17T06:12:34.822Z,8.45
2019-02-17T06:13:39.718Z,8.45
2019-02-17T06:14:45.073Z,8.45
2019-02-17T06:15:51.302Z,8.44
2019-02-17T06:16:56.507Z,8.45
2019-02-17T06:18:01.453Z,8.44
2019-02-17T06:19:06.515Z,8.45
2019-02-17T06:20:11.912Z,8.44
2019-02-17T06:21:17.193Z,8.45
2019-02-17T06:22:22.136Z,8.44
2019-02-17T06:23:27.430Z,8.44
2019-02-17T06:24:32.488Z,8.43
2019-02-17T06:25:37.515Z,8.44
2019-02-17T06:26:42.449Z,8.43
2019-02-17T06:27:47.347Z,8.42
2019-02-17T06:28:52.389Z,8.42
2019-02-17T06:29:57.398Z,8.42
2019-02-17T06:31:02.513Z,8.41
2019-02-17T06:32:07.516Z,8.41
2019-02-17T06:33:12.444Z,8.40
2019-02-17T06:34:17.784Z,8.41
2019-02-17T06:35:22.751Z,8.40
2019-02-17T06:36:27.990Z,8.41
2019-02-17T06:37:32.883Z,8.40
2019-02-17T06:38:37.806Z,8.41
2019-02-17T06:39:43.103Z,8.41
2019-02-17T06:40:48.291Z,8.40
2019-02-17T06:41:53.995Z,8.41
2019-02-17T06:42:59.227Z,8.40
2019-02-17T06:44:04.308Z,8.40
2019-02-17T06:45:09.796Z,8.40
2019-02-17T06:46:19.203Z,8.40
2019-02-17T06:47:28.817Z,8.40
2019-02-17T06:48:33.791Z,8.40
2019-02-17T06:49:38.624Z,8.39
2019-02-17T06:50:43.886Z,8.41
2019-02-17T06:51:48.887Z,8.40
2019-02-17T06:52:53.827Z,8.40
2019-02-17T06:53:58.937Z,8.40
2019-02-17T06:55:21.095Z,8.41
2019-02-17T06:56:30.411Z,8.39
2019-02-17T06:57:39.156Z,8.38
2019-02-17T06:58:44.147Z,8.38
2019-02-17T06:59:51.009Z,8.39
2019-02-17T07:00:58.132Z,8.38
2019-02-17T07:02:03.600Z,8.38
2019-02-17T07:03:08.522Z,8.39
2019-02-17T07:04:13.567Z,8.39
2019-02-17T07:05:27.880Z,8.40
2019-02-17T07:06:42.742Z,8.40
2019-02-17T07:07:47.655Z,8.40
2019-02-17T07:08:53.158Z,8.40
2019-02-17T07:09:58.323Z,8.40
2019-02-17T07:11:03.425Z,8.40
2019-02-17T07:12:08.370Z,8.41
2019-02-17T07:13:13.289Z,8.41
2019-02-17T07:14:18.278Z,8.41
2019-02-17T07:15:23.583Z,8.43
2019-02-17T07:16:28.551Z,8.44
2019-02-17T07:17:33.472Z,8.43
2019-02-17T07:18:38.441Z,8.45
2019-02-17T07:19:43.424Z,8.45
2019-02-17T07:20:48.394Z,8.44
2019-02-17T07:21:53.344Z,8.46
2019-02-17T07:22:58.401Z,8.47
2019-02-17T07:24:03.454Z,8.46
2019-02-17T07:25:08.518Z,8.47
2019-02-17T07:26:13.618Z,8.48
2019-02-17T07:27:18.548Z,8.50
2019-02-17T07:28:23.543Z,8.50
2019-02-17T07:29:28.502Z,8.50
2019-02-17T07:30:33.960Z,8.51
2019-02-17T07:31:38.994Z,8.53
2019-02-17T07:32:44.249Z,8.53
2019-02-17T07:33:49.546Z,8.54
2019-02-17T07:34:54.794Z,8.56
2019-02-17T07:36:00.021Z,8.57
2019-02-17T07:37:05.105Z,8.57
2019-02-17T07:38:10.380Z,8.57
2019-02-17T07:39:15.724Z,8.58
2019-02-17T07:40:20.688Z,8.60
2019-02-17T07:41:26.089Z,8.60
2019-02-17T07:42:31.139Z,8.61
2019-02-17T07:43:36.081Z,8.62
2019-02-17T07:44:41.309Z,8.62
2019-02-17T07:45:46.370Z,8.63
2019-02-17T07:46:51.608Z,8.64
2019-02-17T07:47:56.562Z,8.64
2019-02-17T07:49:01.471Z,8.65
2019-02-17T07:50:07.341Z,8.66
2019-02-17T07:51:12.585Z,8.67
2019-02-17T07:52:17.605Z,8.69
2019-02-17T07:53:22.568Z,8.68
2019-02-17T07:54:27.668Z,8.70
2019-02-17T07:55:32.617Z,8.70
2019-02-17T07:56:37.613Z,8.71
2019-02-17T07:57:42.618Z,8.72
2019-02-17T07:58:47.518Z,8.74
2019-02-17T07:59:52.618Z,8.75
2019-02-17T08:00:57.557Z,8.76
2019-02-17T08:02:02.572Z,8.77
2019-02-17T08:03:08.065Z,8.79
2019-02-17T08:04:13.264Z,8.80
2019-02-17T08:05:18.212Z,8.81
2019-02-17T08:06:24.786Z,8.82
2019-02-17T08:07:31.355Z,8.83
2019-02-17T08:08:38.193Z,8.84
2019-02-17T08:09:44.888Z,8.85
2019-02-17T08:10:49.705Z,8.86
2019-02-17T08:11:54.365Z,8.86
2019-02-17T08:12:59.095Z,8.86
2019-02-17T08:14:03.499Z,8.89
2019-02-17T08:15:08.927Z,8.92
2019-02-17T08:16:13.787Z,8.94
2019-02-17T08:17:18.290Z,8.95
2019-02-17T08:18:22.740Z,8.96
2019-02-17T08:19:27.779Z,8.97
2019-02-17T08:20:32.285Z,8.98
2019-02-17T08:21:36.791Z,9.00
2019-02-17T08:22:41.202Z,9.01
2019-02-17T08:23:45.917Z,9.02
2019-02-17T08:24:50.657Z,9.04
2019-02-17T08:25:55.278Z,9.05
2019-02-17T08:26:59.759Z,9.08
2019-02-17T08:28:04.245Z,9.09
2019-02-17T08:29:08.952Z,9.11
2019-02-17T08:30:16.030Z,9.11
2019-02-17T08:31:19.756Z,9.13
2019-02-17T08:32:24.266Z,9.15
2019-02-17T08:33:28.707Z,9.16
2019-02-17T08:34:33.176Z,9.18
2019-02-17T08:35:37.742Z,9.20
2019-02-17T08:36:42.486Z,9.22
2019-02-17T08:37:47.068Z,9.23
2019-02-17T08:38:51.708Z,9.26
2019-02-17T08:39:56.166Z,9.27
2019-02-17T08:41:00.906Z,9.30
2019-02-17T08:42:05.743Z,9.32
2019-02-17T08:43:10.132Z,9.33
2019-02-17T08:44:14.829Z,9.35
2019-02-17T08:45:19.325Z,9.37
2019-02-17T08:46:23.833Z,9.39
2019-02-17T08:47:28.375Z,9.41
2019-02-17T08:48:32.876Z,9.42
2019-02-17T08:49:37.467Z,9.46
2019-02-17T08:50:42.312Z,9.48
2019-02-17T08:51:46.824Z,9.48
2019-02-17T08:52:51.279Z,9.51
2019-02-17T08:53:56.130Z,9.52
2019-02-17T08:55:00.620Z,9.54
2019-02-17T08:56:05.084Z,9.55
2019-02-17T08:57:10.102Z,9.55
2019-02-17T08:58:14.519Z,9.57
2019-02-17T08:59:19.261Z,9.59
2019-02-17T09:00:23.716Z,9.60
2019-02-17T09:01:28.236Z,9.62
2019-02-17T09:02:33.352Z,9.63
2019-02-17T09:03:38.147Z,9.63
2019-02-17T09:04:42.643Z,9.64
2019-02-17T09:05:47.478Z,9.66
2019-02-17T09:06:52.067Z,9.68
2019-02-17T09:07:56.945Z,9.68
2019-02-17T09:09:01.344Z,9.71
2019-02-17T09:10:07.164Z,9.71
2019-02-17T09:11:11.725Z,9.74
2019-02-17T09:12:16.530Z,9.76
2019-02-17T09:13:20.982Z,9.78
2019-02-17T09:14:25.434Z,9.80
2019-02-17T09:15:29.899Z,9.82
2019-02-17T09:16:34.467Z,9.83
2019-02-17T09:17:38.857Z,9.86
2019-02-17T09:18:43.291Z,9.88
2019-02-17T09:19:47.997Z,9.89
2019-02-17T09:20:52.969Z,9.91
2019-02-17T09:21:57.585Z,9.93
2019-02-17T09:23:01.975Z,9.96
2019-02-17T09:24:06.371Z,9.98
2019-02-17T09:25:11.177Z,10.00
2019-02-17T09:26:15.596Z,10.02
2019-02-17T09:27:20.151Z,10.04
2019-02-17T09:28:24.689Z,10.05
2019-02-17T09:29:29.132Z,10.07
2019-02-17T09:30:33.714Z,10.09
2019-02-17T09:31:38.241Z,10.11
2019-02-17T09:32:42.658Z,10.12
2019-02-17T09:33:47.090Z,10.14
2019-02-17T09:34:51.530Z,10.14
2019-02-17T09:35:55.974Z,10.16
2019-02-17T09:37:00.623Z,10.16
2019-02-17T09:38:05.393Z,10.18
2019-02-17T09:39:10.404Z,10.19
2019-02-17T09:40:15.249Z,10.20
2019-02-17T09:41:19.745Z,10.21
2019-02-17T09:42:24.513Z,10.23
2019-02-17T09:43:29.396Z,10.23
2019-02-17T09:44:33.790Z,10.23
2019-02-17T09:45:38.225Z,10.24
2019-02-17T09:46:42.824Z,10.25
2019-02-17T09:47:47.355Z,10.25
2019-02-17T09:48:52.279Z,10.27
2019-02-17T09:49:57.501Z,10.28
2019-02-17T09:51:02.799Z,10.29
2019-02-17T09:52:07.775Z,10.30
2019-02-17T09:53:12.904Z,10.30
2019-02-17T09:54:17.907Z,10.32
2019-02-17T09:55:23.190Z,10.32
2019-02-17T09:56:28.251Z,10.33
2019-02-17T09:57:33.372Z,10.34
2019-02-17T09:58:38.608Z,10.36
2019-02-17T09:59:43.828Z,10.38
2019-02-17T10:00:49.061Z,10.39
2019-02-17T10:01:54.131Z,10.36
2019-02-17T10:02:59.652Z,10.36
2019-02-17T10:04:05.042Z,10.43
2019-02-17T10:05:10.133Z,10.46
2019-02-17T10:06:15.178Z,10.49
2019-02-17T10:07:20.244Z,10.51
2019-02-17T10:08:25.320Z,10.53
2019-02-17T10:09:30.310Z,10.55
2019-02-17T10:10:35.274Z,10.58
2019-02-17T10:11:40.320Z,10.61
2019-02-17T10:12:45.725Z,10.65
2019-02-17T10:13:51.030Z,10.67
2019-02-17T10:14:55.967Z,10.71
2019-02-17T10:16:01.043Z,10.74
2019-02-17T10:17:06.333Z,10.76
2019-02-17T10:18:11.486Z,10.78
2019-02-17T10:19:16.824Z,10.81
2019-02-17T10:20:21.786Z,10.82
2019-02-17T10:21:26.747Z,10.85
2019-02-17T10:22:31.994Z,10.87
2019-02-17T10:23:37.206Z,10.88
2019-02-17T10:24:42.172Z,10.91
2019-02-17T10:25:47.116Z,10.92
2019-02-17T10:26:52.019Z,10.91
2019-02-17T10:27:57.306Z,10.93
2019-02-17T10:29:02.592Z,10.95
2019-02-17T10:30:09.179Z,10.98
2019-02-17T10:31:14.293Z,10.98
2019-02-17T10:32:20.120Z,10.99
2019-02-17T10:33:25.337Z,11.02
2019-02-17T10:34:30.262Z,11.05
2019-02-17T10:35:35.201Z,11.05
2019-02-17T10:36:40.361Z,11.07
2019-02-17T10:37:45.355Z,11.10
2019-02-17T10:38:50.713Z,11.08
2019-02-17T10:39:56.216Z,11.14
2019-02-17T10:41:01.522Z,11.18
2019-02-17T10:42:06.497Z,11.20
2019-02-17T10:43:11.732Z,11.22
2019-02-17T10:44:16.712Z,11.24
2019-02-17T10:45:21.982Z,11.25
2019-02-17T10:46:27.002Z,11.28
2019-02-17T10:47:32.347Z,11.30
2019-02-17T10:48:37.331Z,11.34
2019-02-17T10:49:42.677Z,11.34
2019-02-17T10:50:48.103Z,11.33
2019-02-17T10:51:53.137Z,11.36
2019-02-17T10:52:58.153Z,11.37
2019-02-17T10:54:03.136Z,11.39
2019-02-17T10:55:08.576Z,11.34
2019-02-17T10:56:13.806Z,11.41
2019-02-17T10:57:18.867Z,11.43
2019-02-17T10:58:24.235Z,11.39
2019-02-17T10:59:29.234Z,11.44
2019-02-17T11:00:34.267Z,11.48
2019-02-17T11:01:39.596Z,11.50
2019-02-17T11:02:47.443Z,11.52
2019-02-17T11:04:02.916Z,11.53
2019-02-17T11:05:08.186Z,11.54
2019-02-17T11:06:13.495Z,11.53
2019-02-17T11:07:18.787Z,11.55
2019-02-17T11:08:23.759Z,11.56
2019-02-17T11:09:28.685Z,11.56
2019-02-17T11:10:33.805Z,11.56
2019-02-17T11:11:38.795Z,11.54
2019-02-17T11:12:43.791Z,11.54
2019-02-17T11:13:48.745Z,11.61
2019-02-17T11:14:53.752Z,11.64
2019-02-17T11:15:58.736Z,11.66
2019-02-17T11:17:03.708Z,11.68
2019-02-17T11:18:08.689Z,11.70
2019-02-17T11:19:13.625Z,11.72
2019-02-17T11:20:18.741Z,11.76
2019-02-17T11:21:23.777Z,11.78
2019-02-17T11:22:28.834Z,11.80
2019-02-17T11:23:33.943Z,11.82
2019-02-17T11:24:39.246Z,11.84
2019-02-17T11:25:44.625Z,11.84
2019-02-17T11:26:49.836Z,11.87
2019-02-17T11:27:54.886Z,11.87
2019-02-17T11:28:59.880Z,11.89
2019-02-17T11:30:06.013Z,11.86
2019-02-17T11:31:11.233Z,11.92
2019-02-17T11:32:16.237Z,11.94
2019-02-17T11:33:21.515Z,11.96
2019-02-17T11:34:26.635Z,11.98
2019-02-17T11:35:31.888Z,11.99
2019-02-17T11:36:36.783Z,12.04
2019-02-17T11:37:41.779Z,12.06
2019-02-17T11:38:47.053Z,12.07
2019-02-17T11:39:52.518Z,12.08
2019-02-17T11:40:57.583Z,12.09
2019-02-17T11:42:02.602Z,12.10
2019-02-17T11:43:07.721Z,12.13
2019-02-17T11:44:13.029Z,12.16
2019-02-17T11:45:18.468Z,12.18
2019-02-17T11:46:23.376Z,12.19
2019-02-17T11:47:28.369Z,12.20
2019-02-17T11:48:33.502Z,12.21
2019-02-17T11:49:38.556Z,12.23
2019-02-17T11:50:43.767Z,12.24
2019-02-17T11:51:48.921Z,12.25
2019-02-17T11:52:54.189Z,12.26
2019-02-17T11:53:59.172Z,12.28
2019-02-17T11:55:04.519Z,12.30
2019-02-17T11:56:09.608Z,12.32
2019-02-17T11:57:14.837Z,12.35
2019-02-17T11:58:19.823Z,12.37
2019-02-17T11:59:24.985Z,12.38
2019-02-17T12:00:30.004Z,12.40
2019-02-17T12:01:34.910Z,12.40
2019-02-17T12:02:39.900Z,12.43
2019-02-17T12:03:45.197Z,12.47
2019-02-17T12:04:50.140Z,12.51
2019-02-17T12:05:55.169Z,12.55
2019-02-17T12:07:00.423Z,12.57
2019-02-17T12:08:05.399Z,12.61
2019-02-17T12:09:11.907Z,12.63
2019-02-17T12:10:17.269Z,12.65
2019-02-17T12:11:22.336Z,12.69
2019-02-17T12:12:27.401Z,12.71
2019-02-17T12:13:32.388Z,12.73
2019-02-17T12:14:37.659Z,12.74
2019-02-17T12:15:42.651Z,12.75
2019-02-17T12:16:47.906Z,12.78
2019-02-17T12:17:52.967Z,12.79
2019-02-17T12:18:57.969Z,12.81
2019-02-17T12:20:23.542Z,12.83
2019-02-17T12:21:45.164Z,12.85
2019-02-17T12:22:56.213Z,12.88
2019-02-17T12:24:11.467Z,12.91
2019-02-17T12:25:21.584Z,12.94
2019-02-17T12:26:43.986Z,12.96
2019-02-17T12:28:12.289Z,12.97
2019-02-17T12:29:23.225Z,13.00
2019-02-17T12:30:28.307Z,12.99
2019-02-17T12:31:35.897Z,12.99
2019-02-17T12:32:41.221Z,13.01
2019-02-17T12:33:46.389Z,13.03
2019-02-17T12:34:51.441Z,13.08
2019-02-17T12:35:56.403Z,13.10
2019-02-17T12:37:01.478Z,13.13
2019-02-17T12:38:06.439Z,13.14
2019-02-17T12:39:11.494Z,13.16
2019-02-17T12:40:16.585Z,13.16
2019-02-17T12:41:21.760Z,13.17
2019-02-17T12:42:26.702Z,13.19
2019-02-17T12:43:31.763Z,13.21
2019-02-17T12:44:37.129Z,13.21
2019-02-17T12:45:42.107Z,13.24
2019-02-17T12:46:47.604Z,13.26
2019-02-17T12:47:57.832Z,13.27
2019-02-17T12:48:59.520Z,13.30
2019-02-17T12:50:05.153Z,13.31
2019-02-17T12:51:10.203Z,13.33
2019-02-17T12:52:15.522Z,13.35
2019-02-17T12:53:20.523Z,13.38
2019-02-17T12:54:29.205Z,13.40
2019-02-17T12:55:32.332Z,13.42
2019-02-17T12:56:37.241Z,13.42
2019-02-17T12:57:42.440Z,13.45
2019-02-17T12:58:47.639Z,13.47
2019-02-17T12:59:52.986Z,13.47
2019-02-17T13:00:58.184Z,13.48
2019-02-17T13:02:03.475Z,13.49
2019-02-17T13:03:08.557Z,13.49
2019-02-17T13:04:13.538Z,13.52
2019-02-17T13:05:18.846Z,13.53
2019-02-17T13:06:23.779Z,13.54
2019-02-17T13:07:28.849Z,13.55
2019-02-17T13:08:33.875Z,13.55
2019-02-17T13:09:38.929Z,13.56
2019-02-17T13:10:43.849Z,13.58
2019-02-17T13:11:48.858Z,13.58
2019-02-17T13:12:53.781Z,13.59
2019-02-17T13:13:58.823Z,13.60
2019-02-17T13:15:04.096Z,13.62
2019-02-17T13:16:09.079Z,13.64
2019-02-17T13:17:14.067Z,13.66
2019-02-17T13:18:19.042Z,13.66
2019-02-17T13:19:23.967Z,13.68
2019-02-17T13:20:29.138Z,13.69
2019-02-17T13:21:34.061Z,13.71
2019-02-17T13:22:39.152Z,13.71
2019-02-17T13:23:44.105Z,13.73
2019-02-17T13:24:49.258Z,13.74
2019-02-17T13:25:54.216Z,13.75
2019-02-17T13:26:59.145Z,13.76
2019-02-17T13:28:04.208Z,13.77
2019-02-17T13:29:09.205Z,13.79
2019-02-17T13:30:17.392Z,13.78
2019-02-17T13:31:22.437Z,13.80
2019-02-17T13:32:27.570Z,13.82
2019-02-17T13:33:39.243Z,13.85
2019-02-17T13:34:39.128Z,13.87
2019-02-17T13:35:44.059Z,13.89
2019-02-17T13:36:49.012Z,13.89
2019-02-17T13:37:54.313Z,13.90
2019-02-17T13:38:59.841Z,13.92
2019-02-17T13:40:05.415Z,13.92
2019-02-17T13:41:10.352Z,13.94
2019-02-17T13:42:15.676Z,13.96
2019-02-17T13:43:20.909Z,13.96
2019-02-17T13:44:26.430Z,13.98
2019-02-17T13:45:31.408Z,13.98
2019-02-17T13:46:36.390Z,14.00
2019-02-17T13:47:41.356Z,14.01
2019-02-17T13:48:46.354Z,14.03
2019-02-17T13:49:51.362Z,14.04
2019-02-17T13:50:56.384Z,14.05
2019-02-17T13:52:01.661Z,14.08
2019-02-17T13:53:11.726Z,14.07
2019-02-17T13:54:13.225Z,14.10
2019-02-17T13:55:18.947Z,14.13
2019-02-17T13:56:23.961Z,14.16
2019-02-17T13:57:29.293Z,14.18
2019-02-17T13:58:34.787Z,14.20
2019-02-17T13:59:39.711Z,14.21
2019-02-17T14:00:45.104Z,14.23
2019-02-17T14:01:50.477Z,14.24
2019-02-17T14:02:55.689Z,14.25
2019-02-17T14:04:00.842Z,14.26
2019-02-17T14:05:06.211Z,14.27
2019-02-17T14:06:11.397Z,14.28
2019-02-17T14:07:16.425Z,14.29
2019-02-17T14:08:21.357Z,14.29
2019-02-17T14:09:26.317Z,14.30
2019-02-17T14:10:31.716Z,14.32
2019-02-17T14:11:36.726Z,14.34
2019-02-17T14:12:42.139Z,14.36
2019-02-17T14:13:47.422Z,14.39
2019-02-17T14:14:52.675Z,14.39
2019-02-17T14:16:00.609Z,14.40
2019-02-17T14:17:05.978Z,14.40
2019-02-17T14:18:10.973Z,14.41
2019-02-17T14:19:15.880Z,14.41
2019-02-17T14:20:21.055Z,14.41